createdAt,value
2018-09-13T00:00:25.261Z,0.00
2018-09-13T00:01:25.300Z,0.00
2018-09-13T00:03:18.210Z,0.00
2018-09-13T00:04:18.210Z,0.00
2018-09-13T00:06:11.129Z,0.00
2018-09-13T00:07:11.142Z,0.00
2018-09-13T00:09:04.049Z,0.00
2018-09-13T00:10:04.069Z,0.00
2018-09-13T00:11:56.995Z,0.00
2018-09-13T00:12:56.998Z,0.00
2018-09-13T00:14:49.904Z,0.00
2018-09-13T00:15:49.926Z,0.00
2018-09-13T00:17:42.844Z,0.00
2018-09-13T00:18:42.856Z,0.00
2018-09-13T00:20:36.765Z,0.00
2018-09-13T00:21:36.786Z,0.00
2018-09-13T00:23:29.704Z,0.00
2018-09-13T00:24:29.713Z,0.00
2018-09-13T00:26:22.627Z,0.00
2018-09-13T00:27:22.637Z,0.00
2018-09-13T00:29:15.546Z,0.00
2018-09-13T00:30:15.566Z,0.00
2018-09-13T00:32:08.483Z,0.00
2018-09-13T00:33:08.494Z,0.00
2018-09-13T00:35:01.402Z,0.00
2018-09-13T00:36:01.419Z,0.00
2018-09-13T00:37:54.341Z,0.00
2018-09-13T00:38:54.346Z,0.00
2018-09-13T00:40:47.255Z,0.00
2018-09-13T00:41:47.279Z,0.00
2018-09-13T00:43:40.193Z,0.00
2018-09-13T00:44:40.207Z,0.00
2018-09-13T00:46:33.124Z,0.00
2018-09-13T00:47:33.135Z,0.00
2018-09-13T00:49:26.048Z,0.00
2018-09-13T00:50:26.062Z,0.00
2018-09-13T00:52:18.979Z,0.00
2018-09-13T00:53:18.989Z,0.00
2018-09-13T00:55:11.894Z,0.00
2018-09-13T00:56:11.917Z,0.00
2018-09-13T00:58:04.835Z,0.00
2018-09-13T00:59:04.908Z,0.00
2018-09-13T01:00:57.750Z,0.00
2018-09-13T01:01:57.769Z,0.00
2018-09-13T01:03:50.687Z,0.00
2018-09-13T01:04:50.700Z,0.00
2018-09-13T01:06:43.611Z,0.00
2018-09-13T01:07:43.623Z,0.00
2018-09-13T01:09:36.527Z,0.00
2018-09-13T01:10:36.547Z,0.00
2018-09-13T01:12:29.464Z,0.00
2018-09-13T01:13:29.475Z,0.00
2018-09-13T01:15:22.384Z,0.00
2018-09-13T01:16:22.400Z,0.00
2018-09-13T01:18:15.316Z,0.00
2018-09-13T01:19:15.327Z,0.00
2018-09-13T01:21:08.232Z,0.00
2018-09-13T01:22:08.251Z,0.00
2018-09-13T01:24:01.183Z,0.00
2018-09-13T01:25:01.177Z,0.00
2018-09-13T01:26:54.102Z,0.00
2018-09-13T01:27:54.101Z,0.00
2018-09-13T01:29:47.018Z,0.00
2018-09-13T01:30:47.034Z,0.00
2018-09-13T01:32:39.949Z,0.00
2018-09-13T01:33:39.960Z,0.00
2018-09-13T01:35:32.863Z,0.00
2018-09-13T01:36:32.884Z,0.00
2018-09-13T01:38:25.799Z,0.00
2018-09-13T01:39:25.811Z,0.00
2018-09-13T01:41:18.721Z,0.00
2018-09-13T01:42:18.735Z,0.00
2018-09-13T01:44:11.652Z,0.00
2018-09-13T01:45:11.662Z,0.00
2018-09-13T01:47:04.575Z,0.00
2018-09-13T01:48:04.588Z,0.00
2018-09-13T01:49:57.493Z,0.00
2018-09-13T01:50:57.505Z,0.00
2018-09-13T01:52:50.426Z,0.00
2018-09-13T01:53:50.437Z,0.00
2018-09-13T01:55:43.344Z,0.00
2018-09-13T01:56:43.363Z,0.00
2018-09-13T01:58:36.280Z,0.00
2018-09-13T01:59:36.286Z,0.00
2018-09-13T02:01:29.204Z,0.00
2018-09-13T02:02:29.225Z,0.00
2018-09-13T02:04:22.145Z,0.00
2018-09-13T02:05:22.151Z,0.00
2018-09-13T02:07:15.069Z,0.00
2018-09-13T02:08:15.077Z,0.00
2018-09-13T02:10:07.985Z,0.00
2018-09-13T02:11:08.005Z,0.00
2018-09-13T02:13:00.929Z,0.00
2018-09-13T02:14:00.936Z,0.00
2018-09-13T02:15:53.845Z,0.00
2018-09-13T02:16:53.862Z,0.00
2018-09-13T02:18:46.778Z,0.00
2018-09-13T02:19:46.786Z,0.00
2018-09-13T02:21:39.697Z,0.00
2018-09-13T02:22:39.719Z,0.00
2018-09-13T02:24:32.639Z,0.00
2018-09-13T02:25:32.648Z,0.00
2018-09-13T02:27:25.565Z,0.00
2018-09-13T02:28:25.575Z,0.00
2018-09-13T02:30:18.484Z,0.00
2018-09-13T02:31:18.507Z,0.00
2018-09-13T02:33:11.423Z,0.00
2018-09-13T02:34:11.433Z,0.00
2018-09-13T02:36:04.340Z,0.00
2018-09-13T02:37:04.363Z,0.00
2018-09-13T02:38:57.279Z,0.00
2018-09-13T02:39:57.287Z,0.00
2018-09-13T02:41:50.193Z,0.00
2018-09-13T02:42:50.213Z,0.00
2018-09-13T02:44:43.133Z,0.00
2018-09-13T02:45:43.144Z,0.00
2018-09-13T02:47:36.067Z,0.00
2018-09-13T02:48:36.072Z,0.00
2018-09-13T02:50:28.977Z,0.00
2018-09-13T02:51:28.997Z,0.00
2018-09-13T02:53:21.913Z,0.00
2018-09-13T02:54:21.922Z,0.00
2018-09-13T02:56:14.828Z,0.00
2018-09-13T02:57:14.852Z,0.00
2018-09-13T02:59:07.767Z,0.00
2018-09-13T03:00:07.775Z,0.00
2018-09-13T03:02:00.677Z,0.00
2018-09-13T03:03:00.703Z,0.00
2018-09-13T03:04:53.634Z,0.00
2018-09-13T03:05:53.633Z,0.00
2018-09-13T03:07:46.553Z,0.00
2018-09-13T03:08:46.563Z,0.00
2018-09-13T03:10:39.467Z,0.00
2018-09-13T03:11:39.483Z,0.00
2018-09-13T03:13:32.408Z,0.00
2018-09-13T03:14:32.420Z,0.00
2018-09-13T03:16:25.326Z,0.00
2018-09-13T03:17:25.350Z,0.00
2018-09-13T03:19:18.265Z,0.00
2018-09-13T03:20:18.275Z,0.00
2018-09-13T03:22:11.183Z,0.00
2018-09-13T03:23:11.206Z,0.00
2018-09-13T03:25:04.116Z,0.00
2018-09-13T03:26:04.128Z,0.00
2018-09-13T03:27:57.038Z,0.00
2018-09-13T03:28:57.056Z,0.00
2018-09-13T03:30:49.978Z,0.00
2018-09-13T03:31:49.990Z,0.00
2018-09-13T03:33:42.916Z,0.00
2018-09-13T03:34:42.906Z,0.00
2018-09-13T03:36:35.963Z,0.00
2018-09-13T03:37:35.983Z,0.00
2018-09-13T03:39:28.900Z,0.00
2018-09-13T03:40:28.912Z,0.00
2018-09-13T03:42:21.818Z,0.00
2018-09-13T03:43:21.837Z,0.00
2018-09-13T03:45:14.748Z,0.00
2018-09-13T03:46:14.759Z,0.00
2018-09-13T03:48:07.665Z,0.00
2018-09-13T03:49:07.684Z,0.00
2018-09-13T03:51:01.607Z,0.00
2018-09-13T03:52:01.615Z,0.00
2018-09-13T03:53:54.530Z,0.00
2018-09-13T03:54:54.539Z,0.00
2018-09-13T03:56:47.451Z,0.00
2018-09-13T03:57:47.467Z,0.00
2018-09-13T03:59:40.389Z,0.00
2018-09-13T04:00:40.392Z,0.00
2018-09-13T04:02:33.305Z,0.00
2018-09-13T04:03:33.325Z,0.00
2018-09-13T04:05:26.235Z,0.00
2018-09-13T04:06:26.247Z,0.00
2018-09-13T04:08:19.159Z,0.00
2018-09-13T04:09:19.206Z,0.00
2018-09-13T04:11:12.091Z,0.00
2018-09-13T04:12:12.098Z,0.00
2018-09-13T04:14:05.022Z,0.00
2018-09-13T04:15:05.023Z,0.00
2018-09-13T04:16:57.948Z,0.00
2018-09-13T04:17:57.954Z,0.00
2018-09-13T04:19:50.939Z,0.00
2018-09-13T04:20:50.931Z,0.00
2018-09-13T04:22:43.850Z,0.00
2018-09-13T04:23:43.845Z,0.00
2018-09-13T04:25:36.778Z,0.00
2018-09-13T04:26:36.785Z,0.00
2018-09-13T04:28:29.702Z,0.00
2018-09-13T04:29:29.688Z,0.00
2018-09-13T04:31:22.661Z,0.00
2018-09-13T04:32:22.626Z,0.00
2018-09-13T04:34:15.582Z,0.00
2018-09-13T04:35:15.630Z,0.00
2018-09-13T04:37:08.502Z,4.00
2018-09-13T04:38:08.488Z,4.00
2018-09-13T04:40:01.388Z,4.00
2018-09-13T04:41:01.418Z,8.00
2018-09-13T04:42:54.385Z,8.00
2018-09-13T04:43:54.356Z,8.00
2018-09-13T04:45:47.269Z,12.00
2018-09-13T04:46:47.292Z,12.00
2018-09-13T04:48:40.219Z,16.00
2018-09-13T04:49:40.195Z,16.00
2018-09-13T04:51:33.672Z,20.00
2018-09-13T04:52:33.129Z,20.00
2018-09-13T04:54:26.046Z,24.00
2018-09-13T04:55:26.073Z,28.00
2018-09-13T04:57:19.050Z,32.00
2018-09-13T04:58:19.008Z,36.00
2018-09-13T05:00:11.956Z,48.00
2018-09-13T05:01:11.916Z,52.00
2018-09-13T05:03:04.912Z,60.00
2018-09-13T05:04:04.847Z,64.00
2018-09-13T05:05:57.768Z,68.00
2018-09-13T05:06:57.779Z,72.00
2018-09-13T05:08:50.727Z,80.00
2018-09-13T05:09:50.691Z,88.00
2018-09-13T05:11:43.680Z,108.00
2018-09-13T05:12:43.643Z,120.00
2018-09-13T05:14:36.520Z,148.00
2018-09-13T05:15:36.552Z,164.00
2018-09-13T05:17:29.531Z,192.00
2018-09-13T05:18:29.467Z,204.00
2018-09-13T05:20:22.386Z,220.00
2018-09-13T05:21:22.410Z,220.00
2018-09-13T05:23:15.397Z,216.00
2018-09-13T05:24:15.352Z,224.00
2018-09-13T05:26:08.258Z,248.00
2018-09-13T05:27:08.266Z,256.00
2018-09-13T05:29:01.234Z,256.00
2018-09-13T05:30:01.174Z,248.00
2018-09-13T05:31:54.076Z,240.00
2018-09-13T05:32:54.103Z,236.00
2018-09-13T05:34:47.094Z,232.00
2018-09-13T05:35:47.029Z,228.00
2018-09-13T05:37:39.984Z,216.00
2018-09-13T05:38:39.954Z,208.00
2018-09-13T05:40:32.846Z,204.00
2018-09-13T05:41:32.901Z,204.00
2018-09-13T05:43:25.803Z,216.00
2018-09-13T05:44:25.862Z,228.00
2018-09-13T05:46:18.718Z,240.00
2018-09-13T05:47:18.725Z,248.00
2018-09-13T05:49:11.704Z,256.00
2018-09-13T05:50:11.651Z,264.00
2018-09-13T05:52:04.577Z,292.00
2018-09-13T05:53:04.596Z,316.00
2018-09-13T05:54:58.515Z,372.00
2018-09-13T05:55:58.502Z,404.00
2018-09-13T05:57:51.450Z,464.00
2018-09-13T05:58:51.465Z,488.00
2018-09-13T06:00:44.324Z,516.00
2018-09-13T06:01:44.347Z,528.00
2018-09-13T06:03:37.322Z,564.00
2018-09-13T06:04:37.252Z,588.00
2018-09-13T06:06:30.185Z,656.00
2018-09-13T06:07:30.206Z,696.00
2018-09-13T06:09:23.172Z,784.00
2018-09-13T06:10:23.131Z,832.00
2018-09-13T06:12:17.032Z,940.00
2018-09-13T06:13:17.060Z,1000.00
2018-09-13T06:15:09.933Z,1100.00
2018-09-13T06:16:09.983Z,1112.00
2018-09-13T06:18:02.881Z,1068.00
2018-09-13T06:19:02.909Z,988.00
2018-09-13T06:20:55.861Z,888.00
2018-09-13T06:21:55.834Z,864.00
2018-09-13T06:23:48.756Z,888.00
2018-09-13T06:24:48.768Z,928.00
2018-09-13T06:26:41.630Z,1136.00
2018-09-13T06:27:41.686Z,1260.00
2018-09-13T06:29:34.755Z,1460.00
2018-09-13T06:30:34.606Z,1532.00
2018-09-13T06:32:27.473Z,1588.00
2018-09-13T06:33:27.568Z,1560.00
2018-09-13T06:35:20.457Z,1564.00
2018-09-13T06:36:20.514Z,1692.00
2018-09-13T06:38:13.324Z,1968.00
2018-09-13T06:39:13.393Z,2152.00
2018-09-13T06:41:06.291Z,2612.00
2018-09-13T06:42:06.338Z,2840.00
2018-09-13T06:43:59.230Z,3108.00
2018-09-13T06:44:59.244Z,3184.00
2018-09-13T06:46:52.119Z,3304.00
2018-09-13T06:47:52.185Z,3312.00
2018-09-13T06:49:45.125Z,3292.00
2018-09-13T06:50:45.107Z,3296.00
2018-09-13T06:52:37.985Z,3240.00
2018-09-13T06:53:38.042Z,3228.00
2018-09-13T06:55:31.000Z,3416.00
2018-09-13T06:56:30.947Z,3604.00
2018-09-13T06:58:23.899Z,3952.00
2018-09-13T06:59:23.891Z,4060.00
2018-09-13T07:01:16.780Z,4140.00
2018-09-13T07:02:16.783Z,4184.00
2018-09-13T07:04:09.709Z,4396.00
2018-09-13T07:05:09.739Z,4556.00
2018-09-13T07:07:02.728Z,4752.00
2018-09-13T07:08:02.672Z,4744.00
2018-09-13T07:09:55.632Z,4576.00
2018-09-13T07:10:55.617Z,4472.00
2018-09-13T07:12:48.528Z,4400.00
2018-09-13T07:13:48.509Z,4432.00
2018-09-13T07:15:42.470Z,4540.00
2018-09-13T07:16:41.469Z,4616.00
2018-09-13T07:18:34.551Z,4784.00
2018-09-13T07:19:34.559Z,4872.00
2018-09-13T07:21:27.534Z,5184.00
2018-09-13T07:22:27.505Z,5468.00
2018-09-13T07:24:20.413Z,5836.00
2018-09-13T07:25:20.448Z,6008.00
2018-09-13T07:27:13.419Z,6428.00
2018-09-13T07:28:13.357Z,6544.00
2018-09-13T07:30:06.271Z,6696.00
2018-09-13T07:31:06.290Z,7024.00
2018-09-13T07:32:59.224Z,7668.00
2018-09-13T07:33:59.236Z,7936.00
2018-09-13T07:35:52.130Z,7980.00
2018-09-13T07:36:52.203Z,7820.00
2018-09-13T07:38:45.079Z,7360.00
2018-09-13T07:39:45.093Z,7204.00
2018-09-13T07:41:38.032Z,6996.00
2018-09-13T07:42:38.033Z,6872.00
2018-09-13T07:44:30.902Z,6716.00
2018-09-13T07:45:31.469Z,6704.00
2018-09-13T07:47:23.899Z,6948.00
2018-09-13T07:48:23.854Z,7144.00
2018-09-13T07:50:16.794Z,7516.00
2018-09-13T07:51:16.828Z,7740.00
2018-09-13T07:53:09.803Z,8044.00
2018-09-13T07:54:09.758Z,8084.00
2018-09-13T07:56:02.815Z,8296.00
2018-09-13T07:57:02.859Z,8596.00
2018-09-13T07:58:55.830Z,8932.00
2018-09-13T07:59:55.785Z,8904.00
2018-09-13T08:01:48.761Z,8780.00
2018-09-13T08:02:48.732Z,8820.00
2018-09-13T08:04:41.658Z,9252.00
2018-09-13T08:05:41.767Z,9388.00
2018-09-13T08:07:34.670Z,9572.00
2018-09-13T08:08:34.624Z,9600.00
2018-09-13T08:10:27.543Z,9112.00
2018-09-13T08:11:27.553Z,8684.00
2018-09-13T08:13:21.573Z,7700.00
2018-09-13T08:14:21.530Z,7104.00
2018-09-13T08:16:14.955Z,6140.00
2018-09-13T08:17:14.441Z,5820.00
2018-09-13T08:19:07.380Z,5884.00
2018-09-13T08:20:07.384Z,6256.00
2018-09-13T08:22:00.288Z,7344.00
2018-09-13T08:23:00.280Z,7772.00
2018-09-13T08:24:53.204Z,7984.00
2018-09-13T08:25:53.270Z,7908.00
2018-09-13T08:27:46.162Z,7948.00
2018-09-13T08:28:46.149Z,8204.00
2018-09-13T08:30:39.056Z,8516.00
2018-09-13T08:31:39.082Z,8644.00
2018-09-13T08:33:32.037Z,8952.00
2018-09-13T08:34:32.031Z,8964.00
2018-09-13T08:36:24.935Z,8964.00
2018-09-13T08:37:24.962Z,8860.00
2018-09-13T08:39:17.880Z,8728.00
2018-09-13T08:40:17.903Z,8856.00
2018-09-13T08:42:10.806Z,8976.00
2018-09-13T08:43:10.880Z,8832.00
2018-09-13T08:45:03.749Z,8616.00
2018-09-13T08:46:03.764Z,8496.00
2018-09-13T08:47:56.684Z,8264.00
2018-09-13T08:48:56.694Z,8312.00
2018-09-13T08:50:49.609Z,8552.00
2018-09-13T08:51:49.628Z,8732.00
2018-09-13T08:53:42.551Z,8940.00
2018-09-13T08:54:42.566Z,8936.00
2018-09-13T08:56:35.476Z,8936.00
2018-09-13T08:57:35.497Z,8976.00
2018-09-13T08:59:28.420Z,9168.00
2018-09-13T09:00:28.431Z,9256.00
2018-09-13T09:02:21.341Z,9048.00
2018-09-13T09:03:21.362Z,9064.00
2018-09-13T09:05:14.281Z,8840.00
2018-09-13T09:06:14.326Z,8988.00
2018-09-13T09:08:07.224Z,8464.00
2018-09-13T09:09:07.231Z,8340.00
2018-09-13T09:11:00.140Z,8820.00
2018-09-13T09:12:00.251Z,9128.00
2018-09-13T09:13:53.086Z,9392.00
2018-09-13T09:14:53.092Z,10224.00
2018-09-13T09:16:46.006Z,11072.00
2018-09-13T09:17:46.030Z,11548.00
2018-09-13T09:19:38.951Z,12160.00
2018-09-13T09:20:38.965Z,12004.00
2018-09-13T09:22:31.887Z,9880.00
2018-09-13T09:23:31.902Z,9272.00
2018-09-13T09:25:24.835Z,8248.00
2018-09-13T09:26:24.848Z,7168.00
2018-09-13T09:28:17.762Z,7004.00
2018-09-13T09:29:17.842Z,6412.00
2018-09-13T09:31:10.701Z,6228.00
2018-09-13T09:32:10.717Z,6484.00
2018-09-13T09:34:03.647Z,7240.00
2018-09-13T09:35:03.749Z,7080.00
2018-09-13T09:36:56.561Z,7852.00
2018-09-13T09:37:56.580Z,8588.00
2018-09-13T09:39:49.509Z,8716.00
2018-09-13T09:40:49.517Z,8428.00
2018-09-13T09:42:42.427Z,7660.00
2018-09-13T09:43:42.450Z,8748.00
2018-09-13T09:45:35.374Z,10060.00
2018-09-13T09:46:35.382Z,10264.00
2018-09-13T09:48:28.292Z,10360.00
2018-09-13T09:49:28.316Z,10352.00
2018-09-13T09:51:21.235Z,11004.00
2018-09-13T09:52:21.310Z,11216.00
2018-09-13T09:54:14.162Z,10760.00
2018-09-13T09:55:14.195Z,10464.00
2018-09-13T09:57:07.104Z,11208.00
2018-09-13T09:58:07.120Z,11612.00
2018-09-13T10:00:00.041Z,11208.00
2018-09-13T10:01:00.049Z,11020.00
2018-09-13T10:02:53.001Z,11232.00
2018-09-13T10:03:52.985Z,11696.00
2018-09-13T10:05:45.904Z,12156.00
2018-09-13T10:06:46.454Z,12120.00
2018-09-13T10:08:38.828Z,12084.00
2018-09-13T10:09:38.899Z,11748.00
2018-09-13T10:11:31.777Z,10116.00
2018-09-13T10:12:31.789Z,9840.00
2018-09-13T10:14:24.713Z,13400.00
2018-09-13T10:15:24.726Z,14568.00
2018-09-13T10:17:17.648Z,12852.00
2018-09-13T10:18:17.659Z,10748.00
2018-09-13T10:20:11.576Z,10372.00
2018-09-13T10:21:11.591Z,10932.00
2018-09-13T10:23:04.519Z,11596.00
2018-09-13T10:24:04.535Z,11216.00
2018-09-13T10:25:57.454Z,10008.00
2018-09-13T10:26:57.515Z,9936.00
2018-09-13T10:28:50.383Z,10384.00
2018-09-13T10:29:50.491Z,10224.00
2018-09-13T10:31:44.318Z,11732.00
2018-09-13T10:32:44.373Z,11724.00
2018-09-13T10:34:37.250Z,11576.00
2018-09-13T10:35:37.274Z,11608.00
2018-09-13T10:37:30.190Z,11968.00
2018-09-13T10:38:30.208Z,11764.00
2018-09-13T10:40:23.124Z,10132.00
2018-09-13T10:41:23.181Z,10388.00
2018-09-13T10:43:16.065Z,11304.00
2018-09-13T10:44:16.080Z,11916.00
2018-09-13T10:46:09.003Z,10696.00
2018-09-13T10:47:09.015Z,10168.00
2018-09-13T10:49:01.936Z,9908.00
2018-09-13T10:50:01.981Z,10200.00
2018-09-13T10:51:54.877Z,10716.00
2018-09-13T10:52:54.927Z,11324.00
2018-09-13T10:54:47.813Z,11944.00
2018-09-13T10:55:47.890Z,12160.00
2018-09-13T10:57:40.755Z,11520.00
2018-09-13T10:58:40.871Z,10656.00
2018-09-13T11:00:33.683Z,7960.00
2018-09-13T11:01:33.707Z,7188.00
2018-09-13T11:03:26.632Z,6744.00
2018-09-13T11:04:26.726Z,7260.00
2018-09-13T11:06:19.559Z,8844.00
2018-09-13T11:07:19.668Z,8948.00
2018-09-13T11:09:12.510Z,9428.00
2018-09-13T11:10:12.524Z,9936.00
2018-09-13T11:12:05.444Z,10900.00
2018-09-13T11:13:05.457Z,11196.00
2018-09-13T11:14:59.568Z,11016.00
2018-09-13T11:15:59.589Z,10732.00
2018-09-13T11:17:52.514Z,9052.00
2018-09-13T11:18:52.539Z,9128.00
2018-09-13T11:20:45.441Z,10196.00
2018-09-13T11:21:45.514Z,10308.00
2018-09-13T11:23:38.384Z,10964.00
2018-09-13T11:24:38.430Z,11440.00
2018-09-13T11:26:31.314Z,12128.00
2018-09-13T11:27:31.333Z,12024.00
2018-09-13T11:29:24.262Z,11632.00
2018-09-13T11:30:24.276Z,11244.00
2018-09-13T11:32:17.678Z,10928.00
2018-09-13T11:33:17.700Z,10812.00
2018-09-13T11:35:10.621Z,11176.00
2018-09-13T11:36:10.640Z,11348.00
2018-09-13T11:38:03.562Z,11192.00
2018-09-13T11:39:03.585Z,10480.00
2018-09-13T11:40:56.695Z,10572.00
2018-09-13T11:41:56.511Z,10760.00
2018-09-13T11:43:49.497Z,10064.00
2018-09-13T11:44:49.452Z,10024.00
2018-09-13T11:46:42.375Z,9996.00
2018-09-13T11:47:42.402Z,10120.00
2018-09-13T11:49:35.324Z,10664.00
2018-09-13T11:50:35.373Z,10348.00
2018-09-13T11:52:28.291Z,8312.00
2018-09-13T11:53:28.302Z,7636.00
2018-09-13T11:55:22.223Z,7628.00
2018-09-13T11:56:22.238Z,7988.00
2018-09-13T11:58:15.167Z,8308.00
2018-09-13T11:59:15.178Z,8684.00
2018-09-13T12:01:08.138Z,9608.00
2018-09-13T12:02:08.235Z,9676.00
2018-09-13T12:04:01.277Z,9280.00
2018-09-13T12:05:01.291Z,9820.00
2018-09-13T12:06:54.209Z,10608.00
2018-09-13T12:07:54.235Z,11616.00
2018-09-13T12:09:47.155Z,12072.00
2018-09-13T12:10:47.172Z,12100.00
2018-09-13T12:12:40.084Z,12212.00
2018-09-13T12:13:40.108Z,11712.00
2018-09-13T12:15:33.032Z,11500.00
2018-09-13T12:16:33.043Z,9736.00
2018-09-13T12:18:26.009Z,7900.00
2018-09-13T12:19:25.983Z,8520.00
2018-09-13T12:21:19.900Z,8008.00
2018-09-13T12:22:19.970Z,7848.00
2018-09-13T12:24:12.839Z,7712.00
2018-09-13T12:25:12.855Z,7796.00
2018-09-13T12:27:05.773Z,6628.00
2018-09-13T12:28:05.793Z,5664.00
2018-09-13T12:29:58.715Z,4908.00
2018-09-13T12:30:58.731Z,4628.00
2018-09-13T12:32:51.646Z,4444.00
2018-09-13T12:33:51.675Z,4496.00
2018-09-13T12:35:44.592Z,4692.00
2018-09-13T12:36:44.608Z,4844.00
2018-09-13T12:38:37.530Z,5584.00
2018-09-13T12:39:37.556Z,6416.00
2018-09-13T12:41:30.476Z,7952.00
2018-09-13T12:42:30.492Z,8572.00
2018-09-13T12:44:23.423Z,9912.00
2018-09-13T12:45:23.445Z,10164.00
2018-09-13T12:47:16.349Z,10836.00
2018-09-13T12:48:16.365Z,11404.00
2018-09-13T12:50:09.343Z,12156.00
2018-09-13T12:51:09.343Z,12192.00
2018-09-13T12:53:02.248Z,11772.00
2018-09-13T12:54:02.264Z,10728.00
2018-09-13T12:55:55.188Z,8868.00
2018-09-13T12:56:55.245Z,8244.00
2018-09-13T12:58:48.120Z,7316.00
2018-09-13T12:59:48.140Z,7280.00
2018-09-13T13:01:41.063Z,8064.00
2018-09-13T13:02:41.083Z,8528.00
2018-09-13T13:04:33.992Z,8688.00
2018-09-13T13:05:34.017Z,8948.00
2018-09-13T13:07:26.938Z,9788.00
2018-09-13T13:08:26.955Z,9968.00
2018-09-13T13:10:19.889Z,10120.00
2018-09-13T13:11:19.902Z,9936.00
2018-09-13T13:13:12.828Z,9880.00
2018-09-13T13:14:12.849Z,9584.00
2018-09-13T13:16:05.772Z,8840.00
2018-09-13T13:17:05.780Z,8632.00
2018-09-13T13:18:58.716Z,7992.00
2018-09-13T13:19:58.741Z,7900.00
2018-09-13T13:21:51.677Z,7628.00
2018-09-13T13:22:51.682Z,7668.00
2018-09-13T13:24:44.599Z,7840.00
2018-09-13T13:25:44.622Z,7812.00
2018-09-13T13:27:37.679Z,7800.00
2018-09-13T13:28:37.563Z,7808.00
2018-09-13T13:30:30.475Z,8000.00
2018-09-13T13:31:30.496Z,8172.00
2018-09-13T13:33:23.422Z,8572.00
2018-09-13T13:34:23.437Z,8776.00
2018-09-13T13:36:16.394Z,8824.00
2018-09-13T13:37:16.378Z,8728.00
2018-09-13T13:39:09.303Z,8312.00
2018-09-13T13:40:09.317Z,8512.00
2018-09-13T13:42:02.248Z,8720.00
2018-09-13T13:43:02.265Z,8832.00
2018-09-13T13:44:55.175Z,8196.00
2018-09-13T13:45:55.197Z,7980.00
2018-09-13T13:47:48.122Z,7108.00
2018-09-13T13:48:48.136Z,6708.00
2018-09-13T13:50:41.049Z,6428.00
2018-09-13T13:51:41.075Z,6680.00
2018-09-13T13:53:34.000Z,6964.00
2018-09-13T13:54:34.016Z,6908.00
2018-09-13T13:56:26.932Z,6868.00
2018-09-13T13:57:26.957Z,6740.00
2018-09-13T13:59:19.881Z,6260.00
2018-09-13T14:00:19.895Z,6120.00
2018-09-13T14:02:12.827Z,6156.00
2018-09-13T14:03:12.838Z,6500.00
2018-09-13T14:05:05.762Z,7276.00
2018-09-13T14:06:05.779Z,7224.00
2018-09-13T14:07:58.726Z,6936.00
2018-09-13T14:08:58.716Z,6748.00
2018-09-13T14:10:51.632Z,6208.00
2018-09-13T14:11:51.648Z,6044.00
2018-09-13T14:13:44.579Z,6056.00
2018-09-13T14:14:44.595Z,6136.00
2018-09-13T14:16:37.511Z,5936.00
2018-09-13T14:17:37.534Z,5756.00
2018-09-13T14:19:30.491Z,5664.00
2018-09-13T14:20:30.562Z,5708.00
2018-09-13T14:22:23.404Z,6264.00
2018-09-13T14:23:23.438Z,6384.00
2018-09-13T14:25:16.397Z,6112.00
2018-09-13T14:26:16.375Z,5736.00
2018-09-13T14:28:09.310Z,5312.00
2018-09-13T14:29:09.317Z,5408.00
2018-09-13T14:31:02.296Z,5424.00
2018-09-13T14:32:02.348Z,5380.00
2018-09-13T14:33:55.201Z,5592.00
2018-09-13T14:34:55.216Z,5712.00
2018-09-13T14:36:48.176Z,5084.00
2018-09-13T14:37:48.189Z,4744.00
2018-09-13T14:39:41.112Z,5060.00
2018-09-13T14:40:41.153Z,5604.00
2018-09-13T14:42:34.042Z,6404.00
2018-09-13T14:43:34.080Z,6448.00
2018-09-13T14:45:26.990Z,5812.00
2018-09-13T14:46:27.008Z,5296.00
2018-09-13T14:48:19.921Z,4304.00
2018-09-13T14:49:19.992Z,3892.00
2018-09-13T14:51:12.885Z,3504.00
2018-09-13T14:52:12.893Z,3408.00
2018-09-13T14:54:05.810Z,3540.00
2018-09-13T14:55:05.837Z,3556.00
2018-09-13T14:56:58.788Z,3728.00
2018-09-13T14:57:58.793Z,3784.00
2018-09-13T14:59:51.700Z,4000.00
2018-09-13T15:00:51.710Z,4132.00
2018-09-13T15:02:44.655Z,4484.00
2018-09-13T15:03:45.222Z,4772.00
2018-09-13T15:05:37.616Z,5424.00
2018-09-13T15:06:37.622Z,5744.00
2018-09-13T15:08:30.560Z,5928.00
2018-09-13T15:09:30.560Z,5804.00
2018-09-13T15:11:23.508Z,5336.00
2018-09-13T15:12:23.525Z,5024.00
2018-09-13T15:14:16.445Z,4368.00
2018-09-13T15:15:16.488Z,4056.00
2018-09-13T15:17:09.402Z,3808.00
2018-09-13T15:18:09.420Z,3796.00
2018-09-13T15:20:02.380Z,3932.00
2018-09-13T15:21:02.353Z,4032.00
2018-09-13T15:22:55.264Z,4292.00
2018-09-13T15:23:55.286Z,4412.00
2018-09-13T15:25:48.210Z,4496.00
2018-09-13T15:26:48.226Z,4472.00
2018-09-13T15:28:41.138Z,4652.00
2018-09-13T15:29:41.162Z,5028.00
2018-09-13T15:31:34.088Z,5500.00
2018-09-13T15:32:34.111Z,5560.00
2018-09-13T15:34:27.021Z,5084.00
2018-09-13T15:35:27.048Z,4528.00
2018-09-13T15:37:19.971Z,3324.00
2018-09-13T15:38:19.983Z,2840.00
2018-09-13T15:40:12.909Z,2216.00
2018-09-13T15:41:12.923Z,1904.00
2018-09-13T15:43:05.867Z,1488.00
2018-09-13T15:44:05.873Z,1380.00
2018-09-13T15:45:58.831Z,1232.00
2018-09-13T15:46:58.793Z,1152.00
2018-09-13T15:48:51.723Z,1040.00
2018-09-13T15:49:51.742Z,988.00
2018-09-13T15:51:44.666Z,1008.00
2018-09-13T15:52:44.730Z,1024.00
2018-09-13T15:54:37.603Z,948.00
2018-09-13T15:55:37.632Z,872.00
2018-09-13T15:57:30.543Z,784.00
2018-09-13T15:58:30.558Z,756.00
2018-09-13T16:00:23.636Z,720.00
2018-09-13T16:01:23.663Z,704.00
2018-09-13T16:03:16.589Z,708.00
2018-09-13T16:04:16.602Z,712.00
2018-09-13T16:06:09.527Z,796.00
2018-09-13T16:07:09.541Z,832.00
2018-09-13T16:09:02.460Z,876.00
2018-09-13T16:10:02.482Z,896.00
2018-09-13T16:11:55.398Z,896.00
2018-09-13T16:12:55.429Z,908.00
2018-09-13T16:14:48.329Z,1000.00
2018-09-13T16:15:48.348Z,1036.00
2018-09-13T16:17:41.279Z,1120.00
2018-09-13T16:18:41.289Z,1216.00
2018-09-13T16:20:34.200Z,1444.00
2018-09-13T16:21:34.226Z,1596.00
2018-09-13T16:23:27.162Z,1796.00
2018-09-13T16:24:27.173Z,1884.00
2018-09-13T16:26:20.101Z,2028.00
2018-09-13T16:27:20.110Z,2084.00
2018-09-13T16:29:13.032Z,2192.00
2018-09-13T16:30:13.043Z,2228.00
2018-09-13T16:32:05.977Z,2280.00
2018-09-13T16:33:05.990Z,2316.00
2018-09-13T16:34:58.983Z,2272.00
2018-09-13T16:35:58.912Z,2204.00
2018-09-13T16:37:52.841Z,2140.00
2018-09-13T16:38:52.883Z,2132.00
2018-09-13T16:40:45.768Z,2068.00
2018-09-13T16:41:45.791Z,2036.00
2018-09-13T16:43:38.714Z,1968.00
2018-09-13T16:44:38.732Z,1948.00
2018-09-13T16:46:31.640Z,1924.00
2018-09-13T16:47:31.757Z,1908.00
2018-09-13T16:49:24.622Z,1856.00
2018-09-13T16:50:24.600Z,1808.00
2018-09-13T16:52:17.513Z,1740.00
2018-09-13T16:53:17.539Z,1696.00
2018-09-13T16:55:10.709Z,1656.00
2018-09-13T16:56:10.723Z,1648.00
2018-09-13T16:58:03.642Z,1616.00
2018-09-13T16:59:03.659Z,1580.00
2018-09-13T17:00:56.576Z,1528.00
2018-09-13T17:01:56.610Z,1516.00
2018-09-13T17:03:49.521Z,1492.00
2018-09-13T17:04:49.535Z,1436.00
2018-09-13T17:06:42.448Z,1340.00
2018-09-13T17:07:42.508Z,1292.00
2018-09-13T17:09:35.400Z,1224.00
2018-09-13T17:10:35.403Z,1208.00
2018-09-13T17:12:28.318Z,1136.00
2018-09-13T17:13:28.371Z,1092.00
2018-09-13T17:15:21.267Z,1012.00
2018-09-13T17:16:21.278Z,984.00
2018-09-13T17:18:14.213Z,936.00
2018-09-13T17:19:14.213Z,900.00
2018-09-13T17:21:07.128Z,828.00
2018-09-13T17:22:07.148Z,792.00
2018-09-13T17:24:00.070Z,740.00
2018-09-13T17:25:00.084Z,708.00
2018-09-13T17:26:53.040Z,656.00
2018-09-13T17:27:53.015Z,624.00
2018-09-13T17:29:45.939Z,572.00
2018-09-13T17:30:45.949Z,544.00
2018-09-13T17:32:38.872Z,492.00
2018-09-13T17:33:38.939Z,468.00
2018-09-13T17:35:31.813Z,420.00
2018-09-13T17:36:31.823Z,396.00
2018-09-13T17:38:24.734Z,348.00
2018-09-13T17:39:24.756Z,324.00
2018-09-13T17:41:17.683Z,288.00
2018-09-13T17:42:17.688Z,264.00
2018-09-13T17:44:10.611Z,228.00
2018-09-13T17:45:10.622Z,212.00
2018-09-13T17:47:03.536Z,180.00
2018-09-13T17:48:03.624Z,160.00
2018-09-13T17:49:56.476Z,136.00
2018-09-13T17:50:56.490Z,120.00
2018-09-13T17:52:49.397Z,96.00